createdAt,value
2022-09-07T00:01:24.510Z,92.90
2022-09-07T00:03:56.919Z,92.90
2022-09-07T00:06:26.751Z,92.90
2022-09-07T00:08:55.231Z,92.90
2022-09-07T00:11:24.050Z,92.90
2022-09-07T00:13:54.659Z,92.90
2022-09-07T00:16:28.011Z,92.90
2022-09-07T00:18:57.222Z,93.00
2022-09-07T00:21:25.950Z,92.90
2022-09-07T00:23:55.150Z,93.00
2022-09-07T00:26:26.388Z,93.10
2022-09-07T00:28:57.908Z,93.10
2022-09-07T00:31:28.930Z,93.20
2022-09-07T00:34:00.904Z,93.20
2022-09-07T00:36:29.468Z,93.20
2022-09-07T00:38:58.862Z,93.30
2022-09-07T00:41:27.548Z,93.30
2022-09-07T00:43:58.364Z,93.40
2022-09-07T00:46:32.345Z,93.40
2022-09-07T00:49:04.395Z,93.50
2022-09-07T00:51:38.654Z,93.50
2022-09-07T00:54:11.515Z,93.50
2022-09-07T00:56:43.527Z,93.60
2022-09-07T00:59:13.923Z,93.60
2022-09-07T01:01:44.307Z,93.60
2022-09-07T01:04:13.048Z,93.70
2022-09-07T01:06:43.398Z,93.90
2022-09-07T01:09:14.159Z,93.90
2022-09-07T01:11:45.303Z,94.00
2022-09-07T01:14:16.895Z,94.00
2022-09-07T01:17:01.035Z,94.10
2022-09-07T01:20:06.438Z,94.10
2022-09-07T01:23:02.016Z,94.20
2022-09-07T01:25:42.524Z,94.20
2022-09-07T01:28:21.793Z,94.20
2022-09-07T01:30:57.422Z,94.10
2022-09-07T01:33:45.138Z,94.20
2022-09-07T01:36:23.340Z,94.20
2022-09-07T01:38:55.577Z,94.30
2022-09-07T01:41:30.854Z,94.30
2022-09-07T01:44:06.933Z,94.30
2022-09-07T01:46:41.164Z,94.30
2022-09-07T01:49:13.453Z,94.40
2022-09-07T01:51:46.494Z,94.40
2022-09-07T01:54:19.857Z,94.50
2022-09-07T01:56:51.177Z,94.50
2022-09-07T01:59:25.902Z,94.60
2022-09-07T02:01:59.617Z,94.60
2022-09-07T02:04:36.332Z,94.70
2022-09-07T02:07:11.537Z,94.70
2022-09-07T02:09:44.981Z,94.80
2022-09-07T02:12:19.121Z,94.90
2022-09-07T02:14:54.424Z,94.90
2022-09-07T02:17:28.146Z,95.00
2022-09-07T02:20:01.589Z,95.00
2022-09-07T02:22:34.566Z,95.10
2022-09-07T02:25:05.918Z,95.10
2022-09-07T02:27:41.124Z,95.20
2022-09-07T02:30:12.674Z,95.20
2022-09-07T02:32:41.345Z,95.20
2022-09-07T02:35:10.587Z,95.30
2022-09-07T02:37:41.173Z,95.30
2022-09-07T02:40:10.835Z,95.40
2022-09-07T02:42:40.607Z,95.40
2022-09-07T02:45:12.869Z,95.40
2022-09-07T02:47:53.757Z,95.40
2022-09-07T02:50:44.344Z,95.50
2022-09-07T02:53:44.967Z,95.50
2022-09-07T02:56:24.289Z,95.50
2022-09-07T02:59:05.182Z,95.60
2022-09-07T03:01:45.533Z,95.70
2022-09-07T03:04:20.078Z,95.70
2022-09-07T03:06:52.575Z,95.90
2022-09-07T03:09:27.315Z,95.90
2022-09-07T03:11:56.166Z,95.90
2022-09-07T03:14:30.639Z,96.00
2022-09-07T03:17:04.198Z,96.10
2022-09-07T03:19:32.664Z,96.10
2022-09-07T03:22:02.544Z,96.10
2022-09-07T03:24:30.966Z,95.70
2022-09-07T03:27:00.754Z,96.20
2022-09-07T03:29:31.975Z,96.50
2022-09-07T03:32:00.580Z,96.30
2022-09-07T03:34:31.587Z,96.40
2022-09-07T03:37:00.379Z,96.30
2022-09-07T03:39:31.179Z,96.40
2022-09-07T03:42:00.266Z,96.40
2022-09-07T03:44:29.061Z,96.40
2022-09-07T03:46:57.535Z,96.40
2022-09-07T03:49:25.944Z,96.50
2022-09-07T03:51:55.795Z,96.50
2022-09-07T03:54:24.941Z,96.60
2022-09-07T03:56:53.728Z,96.60
2022-09-07T03:59:22.209Z,96.60
2022-09-07T04:01:50.799Z,96.60
2022-09-07T04:04:21.005Z,96.70
2022-09-07T04:06:50.244Z,96.70
2022-09-07T04:09:22.031Z,96.80
2022-09-07T04:11:50.422Z,96.80
2022-09-07T04:14:18.960Z,96.50
2022-09-07T04:16:47.905Z,96.20
2022-09-07T04:19:16.670Z,97.00
2022-09-07T04:21:47.535Z,97.00
2022-09-07T04:24:16.959Z,97.00
2022-09-07T04:26:47.176Z,97.10
2022-09-07T04:29:16.477Z,97.20
2022-09-07T04:31:44.886Z,97.20
2022-09-07T04:34:16.214Z,97.20
2022-09-07T04:36:44.688Z,97.30
2022-09-07T04:39:13.255Z,97.40
2022-09-07T04:41:41.705Z,97.40
2022-09-07T04:44:16.114Z,97.50
2022-09-07T04:46:45.269Z,97.50
2022-09-07T04:49:13.897Z,97.50
2022-09-07T04:51:44.673Z,97.50
2022-09-07T04:54:13.263Z,97.50
2022-09-07T04:56:41.761Z,97.60
2022-09-07T04:59:11.846Z,97.60
2022-09-07T05:01:40.175Z,97.60
2022-09-07T05:04:08.853Z,97.60
2022-09-07T05:06:38.255Z,97.70
2022-09-07T05:09:06.609Z,97.60
2022-09-07T05:11:35.273Z,97.60
2022-09-07T05:14:05.324Z,97.60
2022-09-07T05:16:35.852Z,97.70
2022-09-07T05:19:05.900Z,97.60
2022-09-07T05:21:35.673Z,97.50
2022-09-07T05:24:05.403Z,97.50
2022-09-07T05:26:36.116Z,97.50
2022-09-07T05:31:56.152Z,97.30
2022-09-07T05:36:56.429Z,97.20
2022-09-07T05:39:25.363Z,97.10
2022-09-07T05:41:53.878Z,97.10
2022-09-07T05:47:13.984Z,97.10
2022-09-07T05:49:42.333Z,96.90
2022-09-07T05:52:11.379Z,96.80
2022-09-07T05:54:40.238Z,96.60
2022-09-07T05:57:11.888Z,95.30
2022-09-07T05:59:40.366Z,93.90
2022-09-07T06:02:11.626Z,93.10
2022-09-07T06:04:41.405Z,91.70
2022-09-07T06:07:22.422Z,91.40
2022-09-07T06:12:40.232Z,90.40
2022-09-07T06:15:11.549Z,89.90
2022-09-07T06:17:40.051Z,89.60
2022-09-07T06:20:11.511Z,89.80
2022-09-07T06:22:39.865Z,89.10
2022-09-07T06:25:08.687Z,88.50
2022-09-07T06:27:37.242Z,88.30
2022-09-07T06:30:07.496Z,87.80
2022-09-07T06:32:45.697Z,87.80
2022-09-07T06:35:16.303Z,89.10
2022-09-07T06:37:45.320Z,87.90
2022-09-07T06:40:14.104Z,88.60
2022-09-07T06:42:43.741Z,89.00
2022-09-07T06:45:13.032Z,89.40
2022-09-07T06:47:41.790Z,88.20
2022-09-07T06:50:12.677Z,88.90
2022-09-07T06:55:32.045Z,90.70
2022-09-07T06:58:00.471Z,91.00
2022-09-07T07:00:28.960Z,91.00
2022-09-07T07:02:57.714Z,91.30
2022-09-07T07:05:26.315Z,91.70
2022-09-07T07:07:56.726Z,91.70
2022-09-07T07:10:25.334Z,91.60
2022-09-07T07:12:57.731Z,91.40
2022-09-07T07:15:29.115Z,91.40
2022-09-07T07:18:02.640Z,91.40
2022-09-07T07:20:38.916Z,91.20
2022-09-07T07:23:12.495Z,91.20
2022-09-07T07:25:40.878Z,90.60
2022-09-07T07:30:58.918Z,90.00
2022-09-07T07:33:31.671Z,89.60
2022-09-07T07:36:11.939Z,88.70
2022-09-07T07:44:21.844Z,87.70
2022-09-07T07:46:51.432Z,89.10
2022-09-07T07:49:21.205Z,90.20
2022-09-07T07:54:39.776Z,91.20
2022-09-07T07:57:08.604Z,91.20
2022-09-07T07:59:37.151Z,91.30
2022-09-07T08:02:06.108Z,90.90
2022-09-07T08:04:35.814Z,91.10
2022-09-07T08:07:10.261Z,91.50
2022-09-07T08:09:41.854Z,92.00
2022-09-07T08:12:11.485Z,92.50
2022-09-07T08:14:42.262Z,92.70
2022-09-07T08:17:11.919Z,93.30
2022-09-07T08:19:40.741Z,93.30
2022-09-07T08:22:12.057Z,93.60
2022-09-07T08:24:41.885Z,93.90
2022-09-07T08:27:10.611Z,94.00
2022-09-07T08:29:39.695Z,94.30
2022-09-07T08:32:08.535Z,94.20
2022-09-07T08:34:38.558Z,94.30
2022-09-07T08:37:07.330Z,94.60
2022-09-07T08:39:35.952Z,94.90
2022-09-07T08:42:43.600Z,94.90
2022-09-07T08:45:16.245Z,95.70
2022-09-07T08:47:48.803Z,95.30
2022-09-07T08:50:23.478Z,95.50
2022-09-07T08:52:56.951Z,95.60
2022-09-07T08:55:29.164Z,95.40
2022-09-07T08:58:22.220Z,95.40
2022-09-07T09:06:44.385Z,95.70
2022-09-07T09:09:21.821Z,95.50
2022-09-07T09:11:59.652Z,95.30
2022-09-07T09:14:39.323Z,95.50
2022-09-07T09:17:12.988Z,95.40
2022-09-07T09:19:57.395Z,95.50
2022-09-07T09:22:28.750Z,95.50
2022-09-07T09:25:06.094Z,95.50
2022-09-07T09:27:34.849Z,95.40
2022-09-07T09:30:14.506Z,95.60
2022-09-07T09:32:44.973Z,95.70
2022-09-07T09:35:21.173Z,95.70
2022-09-07T09:37:49.659Z,95.70
2022-09-07T09:40:27.447Z,96.00
2022-09-07T09:43:04.891Z,96.10
2022-09-07T09:48:33.788Z,96.20
2022-09-07T09:54:07.435Z,96.30
2022-09-07T09:56:42.009Z,96.30
2022-09-07T10:05:29.575Z,96.30
2022-09-07T10:07:58.730Z,96.30
2022-09-07T10:10:28.636Z,96.20
2022-09-07T10:12:57.677Z,96.50
2022-09-07T10:15:41.380Z,96.60
2022-09-07T10:18:21.421Z,96.80
2022-09-07T10:20:50.105Z,96.70
2022-09-07T10:23:23.839Z,96.80
2022-09-07T10:25:52.499Z,96.70
2022-09-07T10:28:25.196Z,96.50
2022-09-07T10:31:14.784Z,96.50
2022-09-07T10:36:50.149Z,96.40
2022-09-07T10:39:24.952Z,96.30
2022-09-07T10:42:02.139Z,96.30
2022-09-07T10:44:54.043Z,96.60
2022-09-07T10:47:33.491Z,96.10
2022-09-07T10:50:24.484Z,96.40
2022-09-07T10:53:23.628Z,96.40
2022-09-07T10:56:02.452Z,96.50
2022-09-07T11:01:45.870Z,96.30
2022-09-07T11:04:47.584Z,96.40
2022-09-07T11:07:44.609Z,96.40
2022-09-07T11:10:24.560Z,96.40
2022-09-07T11:12:55.557Z,96.50
2022-09-07T11:15:27.634Z,96.60
2022-09-07T11:18:00.800Z,96.50
2022-09-07T11:20:32.799Z,96.80
2022-09-07T11:23:15.806Z,96.80
2022-09-07T11:26:00.170Z,96.80
2022-09-07T11:28:34.140Z,96.70
2022-09-07T11:31:08.803Z,96.60
2022-09-07T11:34:23.412Z,96.60
2022-09-07T11:36:39.178Z,96.70
2022-09-07T11:39:18.087Z,96.60
2022-09-07T11:41:52.855Z,96.60
2022-09-07T11:44:27.151Z,96.90
2022-09-07T11:47:00.407Z,96.60
2022-09-07T11:49:30.985Z,96.70
2022-09-07T11:52:05.301Z,96.80
2022-09-07T11:54:49.201Z,96.70
2022-09-07T11:57:41.036Z,97.00
2022-09-07T12:00:14.974Z,96.60
2022-09-07T12:03:26.758Z,96.80
2022-09-07T12:06:30.252Z,96.60
2022-09-07T12:09:13.589Z,96.40
2022-09-07T12:12:12.379Z,96.50
2022-09-07T12:14:52.080Z,96.20
2022-09-07T12:17:38.414Z,96.30
2022-09-07T12:20:18.886Z,96.10
2022-09-07T12:23:05.088Z,95.80
2022-09-07T12:25:35.966Z,96.10
2022-09-07T12:28:08.038Z,95.90
2022-09-07T12:30:58.958Z,96.00
2022-09-07T12:33:35.867Z,95.80
2022-09-07T12:36:48.354Z,95.90
2022-09-07T12:39:25.368Z,95.70
2022-09-07T12:42:32.258Z,96.00
2022-09-07T12:45:34.161Z,96.20
2022-09-07T12:48:12.269Z,96.30
2022-09-07T12:50:51.172Z,96.60
2022-09-07T12:53:31.432Z,96.70
2022-09-07T12:56:38.764Z,97.00
2022-09-07T12:59:30.468Z,97.10
2022-09-07T13:02:08.289Z,97.00
2022-09-07T13:04:53.606Z,97.10
2022-09-07T13:08:08.014Z,97.10
2022-09-07T13:10:39.311Z,97.10
2022-09-07T13:13:18.495Z,97.20
2022-09-07T13:15:49.305Z,97.30
2022-09-07T13:18:44.099Z,97.30
2022-09-07T13:21:42.880Z,97.30
2022-09-07T13:24:52.863Z,97.40
2022-09-07T13:27:51.344Z,97.50
2022-09-07T13:30:47.167Z,97.50
2022-09-07T13:33:37.681Z,97.60
2022-09-07T13:36:07.865Z,97.40
2022-09-07T13:38:41.973Z,97.40
2022-09-07T13:41:16.790Z,97.50
2022-09-07T13:43:49.405Z,97.50
2022-09-07T13:46:44.130Z,97.60
2022-09-07T13:49:27.586Z,97.50
2022-09-07T13:52:04.954Z,97.30
2022-09-07T13:54:56.513Z,97.20
2022-09-07T13:57:30.200Z,97.20
2022-09-07T14:00:00.083Z,97.20
2022-09-07T14:02:32.960Z,97.50
2022-09-07T14:05:02.500Z,97.50
2022-09-07T14:07:32.312Z,97.50
2022-09-07T14:10:14.372Z,97.50
2022-09-07T14:12:45.462Z,97.50
2022-09-07T14:15:22.902Z,97.40
2022-09-07T14:17:56.748Z,97.40
2022-09-07T14:20:26.815Z,97.30
2022-09-07T14:22:55.266Z,97.20
2022-09-07T14:25:26.693Z,97.20
2022-09-07T14:27:57.047Z,97.20
2022-09-07T14:30:29.349Z,97.30
2022-09-07T14:33:02.069Z,97.20
2022-09-07T14:35:35.740Z,97.20
2022-09-07T14:38:12.788Z,97.20
2022-09-07T14:40:43.391Z,97.00
2022-09-07T14:43:30.723Z,97.10
2022-09-07T14:46:18.808Z,97.20
2022-09-07T14:48:49.876Z,97.20
2022-09-07T14:51:32.692Z,97.60
2022-09-07T14:54:06.898Z,97.30
2022-09-07T14:56:38.565Z,97.30
2022-09-07T14:59:29.114Z,97.20
2022-09-07T15:02:24.142Z,97.10
2022-09-07T15:05:25.466Z,96.90
2022-09-07T15:07:55.905Z,96.80
2022-09-07T15:10:37.165Z,96.50
2022-09-07T15:13:23.692Z,96.50
2022-09-07T15:16:01.568Z,96.60
2022-09-07T15:18:54.516Z,96.60
2022-09-07T15:21:27.580Z,96.70
2022-09-07T15:23:59.365Z,96.50
2022-09-07T15:29:29.748Z,96.60
2022-09-07T15:32:03.733Z,96.80
2022-09-07T15:34:34.561Z,96.90
2022-09-07T15:37:04.086Z,97.00
2022-09-07T15:39:53.074Z,97.10
2022-09-07T15:45:12.690Z,97.20
2022-09-07T15:47:43.760Z,97.20
2022-09-07T15:50:15.772Z,97.30
2022-09-07T15:52:46.514Z,97.30
2022-09-07T15:55:17.594Z,97.40
2022-09-07T15:57:49.240Z,97.50
2022-09-07T16:00:21.679Z,97.60
2022-09-07T16:03:07.427Z,97.60
2022-09-07T16:05:36.774Z,97.60
2022-09-07T16:10:55.817Z,97.80
2022-09-07T16:13:32.936Z,97.80
2022-09-07T16:16:05.982Z,97.70
2022-09-07T16:18:35.418Z,98.00
2022-09-07T16:21:11.806Z,97.80
2022-09-07T16:23:43.249Z,97.80
2022-09-07T16:26:14.907Z,97.90
2022-09-07T16:28:45.485Z,97.90
2022-09-07T16:31:17.400Z,97.90
2022-09-07T16:33:46.331Z,97.90
2022-09-07T16:36:16.700Z,98.00
2022-09-07T16:38:48.734Z,97.90
2022-09-07T16:41:20.761Z,97.90
2022-09-07T16:43:49.539Z,97.90
2022-09-07T16:46:22.082Z,97.90
2022-09-07T16:48:51.852Z,97.80
2022-09-07T16:51:21.942Z,97.90
2022-09-07T16:53:52.219Z,98.00
2022-09-07T16:56:25.856Z,98.00
2022-09-07T16:58:57.703Z,98.10
2022-09-07T17:01:30.870Z,97.60
2022-09-07T17:03:59.846Z,98.20
2022-09-07T17:06:31.045Z,98.30
2022-09-07T17:09:00.372Z,98.40
2022-09-07T17:11:30.947Z,98.50
2022-09-07T17:14:00.491Z,98.50
2022-09-07T17:16:33.131Z,98.50
2022-09-07T17:21:55.202Z,98.60
2022-09-07T17:24:25.862Z,98.70
2022-09-07T17:26:54.327Z,98.80
2022-09-07T17:29:22.696Z,98.80
2022-09-07T17:34:40.983Z,99.30
2022-09-07T17:37:10.582Z,98.90
2022-09-07T17:39:39.903Z,98.70
2022-09-07T17:42:09.757Z,99.10
2022-09-07T17:44:38.603Z,99.40
2022-09-07T17:47:08.613Z,99.20
2022-09-07T17:49:37.139Z,99.30
2022-09-07T17:52:05.857Z,99.10
2022-09-07T17:54:34.196Z,99.10
2022-09-07T17:57:03.247Z,99.10
2022-09-07T18:02:23.775Z,99.70
2022-09-07T18:04:53.927Z,99.90
2022-09-07T18:07:22.495Z,99.90
2022-09-07T18:09:50.889Z,99.90
2022-09-07T18:12:19.436Z,99.90
2022-09-07T18:14:48.088Z,99.90
2022-09-07T18:17:16.475Z,99.90
2022-09-07T18:19:46.968Z,99.90
2022-09-07T18:22:15.938Z,99.90
2022-09-07T18:24:44.592Z,99.90
2022-09-07T18:27:13.106Z,99.90
2022-09-07T18:29:41.948Z,99.90
2022-09-07T18:32:10.402Z,99.90
2022-09-07T18:34:41.294Z,99.90
2022-09-07T18:37:13.352Z,99.90
2022-09-07T18:39:42.110Z,99.90
2022-09-07T18:42:11.182Z,99.90
2022-09-07T18:47:29.555Z,99.90
2022-09-07T18:49:58.557Z,99.90
2022-09-07T18:55:18.147Z,99.90
2022-09-07T18:57:46.765Z,99.90
2022-09-07T19:00:15.432Z,99.90
2022-09-07T19:02:43.916Z,99.90
2022-09-07T19:08:05.925Z,99.90
2022-09-07T19:10:38.507Z,99.90
2022-09-07T19:13:07.732Z,99.90
2022-09-07T19:15:37.673Z,99.90
2022-09-07T19:18:07.791Z,99.90
2022-09-07T19:20:37.222Z,99.90
2022-09-07T19:23:07.736Z,99.90
2022-09-07T19:25:40.735Z,99.90
2022-09-07T19:28:09.238Z,99.90
2022-09-07T19:30:37.644Z,99.90
2022-09-07T19:33:10.017Z,99.90
2022-09-07T19:35:38.379Z,99.90
2022-09-07T19:38:08.280Z,99.90
2022-09-07T19:40:36.610Z,99.90
2022-09-07T19:43:04.990Z,99.90
2022-09-07T19:45:33.472Z,99.90
2022-09-07T19:48:01.842Z,99.90
2022-09-07T19:50:30.245Z,99.90
2022-09-07T19:52:59.199Z,99.90
2022-09-07T19:55:29.106Z,99.90
2022-09-07T19:57:57.454Z,99.90
2022-09-07T20:00:27.052Z,99.90
2022-09-07T20:02:56.002Z,99.90
2022-09-07T20:05:29.273Z,99.90
2022-09-07T20:07:58.541Z,99.90
2022-09-07T20:10:28.502Z,99.90
2022-09-07T20:12:56.949Z,99.90
2022-09-07T20:15:25.583Z,99.90
2022-09-07T20:17:54.779Z,99.90
2022-09-07T20:20:23.471Z,99.90
2022-09-07T20:22:51.928Z,99.90
2022-09-07T20:25:20.527Z,99.90
2022-09-07T20:27:50.488Z,99.90
2022-09-07T20:30:19.205Z,99.90
2022-09-07T20:32:47.890Z,99.90
2022-09-07T20:35:16.331Z,99.90
2022-09-07T20:37:45.175Z,99.90
2022-09-07T20:40:13.678Z,99.90
2022-09-07T20:42:42.185Z,99.90
2022-09-07T20:45:12.606Z,99.90
2022-09-07T20:47:40.989Z,99.90
2022-09-07T20:50:10.072Z,99.90
2022-09-07T20:52:38.513Z,99.90
2022-09-07T20:55:08.093Z,99.90
2022-09-07T20:57:38.076Z,99.90
2022-09-07T21:00:08.239Z,99.90
2022-09-07T21:02:37.963Z,99.90
2022-09-07T21:05:09.405Z,99.90
2022-09-07T21:07:39.834Z,99.90
2022-09-07T21:10:10.515Z,99.90
2022-09-07T21:12:38.802Z,99.90
2022-09-07T21:15:09.057Z,99.90
2022-09-07T21:17:39.617Z,99.90
2022-09-07T21:20:08.424Z,99.90
2022-09-07T21:22:37.027Z,99.90
2022-09-07T21:25:05.939Z,99.90
2022-09-07T21:27:38.799Z,99.90
2022-09-07T21:30:08.807Z,99.90
2022-09-07T21:32:40.480Z,99.90
2022-09-07T21:35:10.831Z,99.90
2022-09-07T21:37:40.184Z,99.90
2022-09-07T21:40:09.663Z,99.90
2022-09-07T21:42:38.322Z,99.90
2022-09-07T21:45:07.674Z,99.90
2022-09-07T21:47:36.032Z,99.90
2022-09-07T21:50:06.815Z,99.90
2022-09-07T21:52:35.364Z,99.90
2022-09-07T21:55:03.884Z,99.90
2022-09-07T21:57:32.407Z,99.90
2022-09-07T22:00:00.798Z,99.90
2022-09-07T22:02:29.509Z,99.90
2022-09-07T22:04:57.777Z,99.90
2022-09-07T22:07:27.594Z,99.90
2022-09-07T22:09:55.995Z,99.90
2022-09-07T22:12:24.810Z,99.90
2022-09-07T22:14:53.272Z,99.90
2022-09-07T22:17:21.822Z,99.90
2022-09-07T22:19:50.326Z,99.90
2022-09-07T22:22:18.889Z,99.90
2022-09-07T22:24:49.257Z,99.90
2022-09-07T22:27:17.656Z,99.90
2022-09-07T22:29:46.063Z,99.90
2022-09-07T22:32:16.317Z,99.90
2022-09-07T22:34:44.703Z,99.90
2022-09-07T22:37:13.122Z,99.90
2022-09-07T22:39:41.528Z,99.90
2022-09-07T22:42:11.483Z,99.90
2022-09-07T22:44:40.532Z,99.90
2022-09-07T22:47:10.215Z,99.90
2022-09-07T22:49:38.647Z,99.90
2022-09-07T22:52:07.016Z,99.90
2022-09-07T22:54:35.472Z,99.90
2022-09-07T22:57:04.194Z,99.90
2022-09-07T22:59:34.210Z,99.90
2022-09-07T23:02:02.652Z,99.90
2022-09-07T23:04:31.972Z,99.90
2022-09-07T23:07:00.519Z,99.90
2022-09-07T23:09:30.084Z,99.90
2022-09-07T23:12:02.252Z,99.90
2022-09-07T23:14:37.615Z,99.90
2022-09-07T23:17:08.731Z,99.90
2022-09-07T23:19:37.958Z,99.90
2022-09-07T23:22:09.679Z,99.90
2022-09-07T23:24:42.153Z,99.90
2022-09-07T23:27:10.582Z,99.90
2022-09-07T23:29:40.373Z,99.90
2022-09-07T23:32:08.644Z,99.90
2022-09-07T23:34:37.422Z,99.90
2022-09-07T23:37:05.788Z,99.90
2022-09-07T23:39:34.211Z,99.90
2022-09-07T23:42:02.882Z,99.90
2022-09-07T23:44:31.191Z,99.90
2022-09-07T23:47:00.888Z,99.90
2022-09-07T23:49:29.250Z,99.90
2022-09-07T23:51:57.705Z,99.90
2022-09-07T23:54:26.039Z,99.90
2022-09-07T23:56:54.588Z,99.90
2022-09-07T23:59:23.039Z,99.90
